Time;durP1;ratioP1;P1;durP2;ratioP2;P2;SDS_P1;SDS_P2;PMS_P1;PMS_P2;Temp;Humidity;BMP_temperature;BMP_pressure;BME280_temperature;BME280_humidity;BME280_pressure;Samples;Min_cycle;Max_cycle;Signal;HPM_P1;HPM_P2
2021/09/20 00:00:49;;;;;;;;;;;;;;;14.62;80.21;99390.69;5032670;28;810;-67
2021/09/20 00:03:16;;;;;;;;;;;;;;;14.77;79.80;99393.84;5032293;28;822;-68
2021/09/20 00:05:42;;;;;;;;;;;;;;;14.87;79.32;99390.00;5032212;28;865;-68
2021/09/20 00:08:09;;;;;;;;;;;;;;;14.94;79.19;99388.22;5032141;28;893;-68
2021/09/20 00:10:36;;;;;;;;;;;;;;;14.98;78.78;99383.31;5032123;28;865;-68
2021/09/20 00:13:02;;;;;;;;;;;;;;;15.01;78.56;99394.34;5031976;28;1889;-68
2021/09/20 00:15:28;;;;;;;;;;;;;;;14.84;78.49;99404.75;5032052;28;1130;-68
2021/09/20 00:17:54;;;;;;;;;;;;;;;14.57;78.98;99402.34;5031854;28;1404;-68
2021/09/20 00:20:21;;;;;;;;;;;;;;;14.36;79.44;99395.34;5031965;28;893;-68
2021/09/20 00:22:48;;;;;;;;;;;;;;;14.26;79.83;99394.41;5031944;28;823;-67
2021/09/20 00:25:14;;;;;;;;;;;;;;;14.25;79.97;99380.94;5031845;28;831;-68
2021/09/20 00:27:41;;;;;;;;;;;;;;;14.31;80.01;99384.75;5031745;28;862;-68
2021/09/20 00:30:09;;;;;;;;;;;;;;;14.36;79.85;99383.44;5031837;28;882;-68
2021/09/20 00:32:36;;;;;;;;;;;;;;;14.42;79.79;99396.38;5031861;28;1910;-67
2021/09/20 00:35:04;;;;;;;;;;;;;;;14.47;79.58;99393.06;5031699;28;862;-67
2021/09/20 00:37:31;;;;;;;;;;;;;;;14.53;79.17;99386.94;5031747;28;787;-68
2021/09/20 00:39:58;;;;;;;;;;;;;;;14.60;78.83;99384.00;5031750;28;886;-67
2021/09/20 00:42:25;;;;;;;;;;;;;;;14.62;78.71;99376.00;5013872;28;1326;-68
2021/09/20 00:44:51;;;;;;;;;;;;;;;14.61;78.84;99382.78;5031692;28;863;-68
2021/09/20 00:47:18;;;;;;;;;;;;;;;14.54;78.87;99383.72;5031513;28;860;-67
2021/09/20 00:49:45;;;;;;;;;;;;;;;14.52;78.65;99379.84;5031615;28;870;-67
2021/09/20 00:52:12;;;;;;;;;;;;;;;14.50;78.44;99383.81;5031543;28;847;-68
2021/09/20 00:54:39;;;;;;;;;;;;;;;14.50;78.18;99383.06;5031498;28;1890;-68
2021/09/20 00:57:06;;;;;;;;;;;;;;;14.51;78.13;99384.63;5031372;28;819;-67
2021/09/20 00:59:32;;;;;;;;;;;;;;;14.49;78.19;99403.75;5035427;28;846;-67
2021/09/20 01:02:00;;;;;;;;;;;;;;;14.42;78.17;99404.72;5038128;28;843;-68
2021/09/20 01:04:26;;;;;;;;;;;;;;;14.38;78.26;99398.47;5038037;28;866;-67
2021/09/20 01:06:53;;;;;;;;;;;;;;;14.38;78.17;99392.91;5038016;28;866;-68
2021/09/20 01:09:20;;;;;;;;;;;;;;;14.38;78.43;99397.69;5038006;28;783;-68
2021/09/20 01:11:47;;;;;;;;;;;;;;;14.38;78.58;99387.34;5038019;28;791;-67
2021/09/20 01:14:14;;;;;;;;;;;;;;;14.38;78.74;99384.56;5037841;28;1965;-68
2021/09/20 01:16:40;;;;;;;;;;;;;;;14.48;78.60;99380.69;5037961;28;1196;-68
2021/09/20 01:19:07;;;;;;;;;;;;;;;14.48;78.53;99386.25;5037938;28;811;-67
2021/09/20 01:21:34;;;;;;;;;;;;;;;14.48;78.53;99391.81;5037785;28;944;-68
2021/09/20 01:24:01;;;;;;;;;;;;;;;14.50;78.57;99392.16;5037865;28;894;-68
2021/09/20 01:26:27;;;;;;;;;;;;;;;14.55;78.88;99393.69;5037710;28;922;-68
2021/09/20 01:28:54;;;;;;;;;;;;;;;14.62;78.76;99379.56;5037784;28;854;-68
2021/09/20 01:31:21;;;;;;;;;;;;;;;14.67;78.81;99378.25;5037790;28;850;-68
2021/09/20 01:33:48;;;;;;;;;;;;;;;14.70;78.80;99380.94;5037796;28;1910;-68
2021/09/20 01:36:14;;;;;;;;;;;;;;;14.68;78.96;99393.72;5037670;28;924;-68
2021/09/20 01:38:40;;;;;;;;;;;;;;;14.59;79.19;99386.00;5037679;28;847;-68
2021/09/20 01:41:07;;;;;;;;;;;;;;;14.50;79.54;99383.81;5037730;28;811;-67
2021/09/20 01:43:34;;;;;;;;;;;;;;;14.44;80.00;99371.69;5037588;28;1043;-67
2021/09/20 01:46:00;;;;;;;;;;;;;;;14.44;80.22;99373.69;5037759;28;831;-68
2021/09/20 01:48:27;;;;;;;;;;;;;;;14.48;80.19;99377.16;5037607;28;1056;-67
2021/09/20 01:50:54;;;;;;;;;;;;;;;14.61;79.82;99377.22;5037655;28;893;-67
2021/09/20 01:53:21;;;;;;;;;;;;;;;14.76;79.50;99372.03;5037526;28;1890;-68
2021/09/20 01:55:47;;;;;;;;;;;;;;;14.92;78.98;99365.63;5037790;28;835;-68
2021/09/20 01:58:14;;;;;;;;;;;;;;;15.10;78.48;99368.63;5037806;28;791;-67
2021/09/20 02:00:43;;;;;;;;;;;;;;;15.22;78.07;99365.09;5037614;28;909;-68
2021/09/20 02:03:11;;;;;;;;;;;;;;;15.30;77.67;99380.34;5037592;28;852;-68
2021/09/20 02:05:38;;;;;;;;;;;;;;;15.35;77.78;99379.00;5019776;28;1445;-67
2021/09/20 02:08:04;;;;;;;;;;;;;;;15.37;77.72;99382.13;5037447;28;878;-67
2021/09/20 02:10:31;;;;;;;;;;;;;;;15.39;77.59;99390.81;5035211;28;811;-68
2021/09/20 02:12:58;;;;;;;;;;;;;;;15.37;77.43;99384.13;5034308;28;1949;-68
2021/09/20 02:15:24;;;;;;;;;;;;;;;15.31;77.55;99381.91;5034153;28;1119;-68
2021/09/20 02:17:52;;;;;;;;;;;;;;;15.26;77.58;99387.25;5034035;28;1203;-68
2021/09/20 02:20:17;;;;;;;;;;;;;;;15.21;77.90;99391.38;5034412;28;818;-67
2021/09/20 02:22:44;;;;;;;;;;;;;;;15.17;78.11;99381.56;5034220;28;819;-67
2021/09/20 02:25:12;;;;;;;;;;;;;;;15.13;78.37;99380.88;5034003;28;910;-67
2021/09/20 02:27:39;;;;;;;;;;;;;;;15.13;78.42;99378.09;5034078;28;855;-68
2021/09/20 02:30:06;;;;;;;;;;;;;;;15.16;78.20;99371.66;5034019;28;850;-67
2021/09/20 02:32:33;;;;;;;;;;;;;;;15.13;78.26;99378.91;5033814;28;1906;-67
2021/09/20 02:35:00;;;;;;;;;;;;;;;15.05;78.60;99369.97;5034017;28;850;-67
2021/09/20 02:37:27;;;;;;;;;;;;;;;14.99;78.72;99362.63;5034257;28;866;-68
2021/09/20 02:39:54;;;;;;;;;;;;;;;14.97;78.97;99365.06;5033874;28;807;-68
2021/09/20 02:42:21;;;;;;;;;;;;;;;14.98;79.17;99364.63;5033796;28;866;-68
2021/09/20 02:44:48;;;;;;;;;;;;;;;15.02;78.90;99365.31;5033795;28;898;-68
2021/09/20 02:47:15;;;;;;;;;;;;;;;15.09;78.83;99358.75;5033624;28;870;-68
2021/09/20 02:49:41;;;;;;;;;;;;;;;15.14;78.78;99374.09;5034005;28;894;-68
2021/09/20 02:52:08;;;;;;;;;;;;;;;15.16;78.79;99368.88;5033580;28;807;-68
2021/09/20 02:54:34;;;;;;;;;;;;;;;15.15;78.89;99347.81;5033422;28;1945;-68
2021/09/20 02:57:01;;;;;;;;;;;;;;;15.15;78.86;99353.38;5033543;28;890;-68
2021/09/20 02:59:27;;;;;;;;;;;;;;;15.10;78.84;99357.50;5033535;28;799;-67
2021/09/20 03:01:53;;;;;;;;;;;;;;;15.05;79.24;99364.41;5033441;28;908;-67
2021/09/20 03:04:19;;;;;;;;;;;;;;;15.05;79.08;99360.84;5033464;28;866;-67
2021/09/20 03:06:46;;;;;;;;;;;;;;;15.07;79.00;99361.97;5033326;28;831;-68
2021/09/20 03:09:13;;;;;;;;;;;;;;;15.00;78.89;99369.72;5033371;28;807;-68
2021/09/20 03:11:40;;;;;;;;;;;;;;;14.89;78.82;99367.25;5033320;28;807;-67
2021/09/20 03:14:07;;;;;;;;;;;;;;;14.82;78.85;99379.38;5033133;28;1989;-68
2021/09/20 03:16:34;;;;;;;;;;;;;;;14.79;78.79;99373.94;5033584;28;933;-67
2021/09/20 03:19:01;;;;;;;;;;;;;;;14.79;79.06;99368.38;5032980;28;1261;-68
2021/09/20 03:21:27;;;;;;;;;;;;;;;14.82;79.20;99371.03;5032748;28;862;-68
2021/09/20 03:23:54;;;;;;;;;;;;;;;14.90;79.06;99369.63;5033081;28;854;-68
2021/09/20 03:26:20;;;;;;;;;;;;;;;15.04;78.33;99364.84;5033155;28;890;-68
2021/09/20 03:28:47;;;;;;;;;;;;;;;15.16;78.02;99372.44;5033466;28;810;-67
2021/09/20 03:31:13;;;;;;;;;;;;;;;15.22;77.90;99367.88;5033082;28;827;-67
2021/09/20 03:33:40;;;;;;;;;;;;;;;15.20;78.17;99364.75;5032933;28;1910;-68
2021/09/20 03:36:07;;;;;;;;;;;;;;;15.13;78.17;99366.97;5033158;28;842;-68
2021/09/20 03:38:34;;;;;;;;;;;;;;;15.05;78.56;99380.31;5032830;28;862;-68
2021/09/20 03:41:00;;;;;;;;;;;;;;;15.03;78.62;99380.00;5033018;28;818;-68
2021/09/20 03:43:26;;;;;;;;;;;;;;;15.04;78.25;99370.41;5032607;28;878;-68
2021/09/20 03:45:52;;;;;;;;;;;;;;;14.98;78.13;99367.41;5032626;28;881;-68
2021/09/20 03:48:19;;;;;;;;;;;;;;;14.86;78.27;99363.38;5032563;28;878;-68
2021/09/20 03:50:46;;;;;;;;;;;;;;;14.74;78.51;99357.78;5032470;28;874;-67
2021/09/20 03:53:13;;;;;;;;;;;;;;;14.60;78.67;99351.41;5032235;28;1882;-68
2021/09/20 03:55:39;;;;;;;;;;;;;;;14.42;79.11;99356.66;5032490;28;873;-67
2021/09/20 03:58:06;;;;;;;;;;;;;;;14.24;79.86;99359.94;5032369;28;874;-68
2021/09/20 04:00:33;;;;;;;;;;;;;;;14.16;80.14;99364.13;5032353;28;886;-68
2021/09/20 04:02:59;;;;;;;;;;;;;;;14.15;80.31;99360.56;5032303;28;889;-67
2021/09/20 04:05:26;;;;;;;;;;;;;;;14.22;80.31;99382.59;5032220;28;894;-67
2021/09/20 04:07:52;;;;;;;;;;;;;;;14.32;80.24;99391.09;5032233;28;830;-68
2021/09/20 04:10:19;;;;;;;;;;;;;;;14.37;80.12;99390.56;5032166;28;873;-68
2021/09/20 04:12:46;;;;;;;;;;;;;;;14.40;79.98;99389.69;5031985;28;1878;-67
2021/09/20 04:15:12;;;;;;;;;;;;;;;14.44;79.96;99396.69;5032141;28;811;-68
2021/09/20 04:17:39;;;;;;;;;;;;;;;14.45;79.91;99386.38;5032107;28;1356;-68
2021/09/20 04:20:06;;;;;;;;;;;;;;;14.48;79.78;99379.94;5031935;28;826;-68
2021/09/20 04:22:32;;;;;;;;;;;;;;;14.50;79.70;99383.81;5031877;28;874;-68
2021/09/20 04:24:58;;;;;;;;;;;;;;;14.53;79.77;99386.94;5031919;28;854;-68
2021/09/20 04:27:25;;;;;;;;;;;;;;;14.53;79.87;99386.94;5014173;28;1324;-67
2021/09/20 04:29:52;;;;;;;;;;;;;;;14.49;80.02;99389.84;5031899;28;1024;-68
2021/09/20 04:32:19;;;;;;;;;;;;;;;14.49;80.22;99404.53;5031880;28;791;-67
2021/09/20 04:34:46;;;;;;;;;;;;;;;14.55;80.11;99402.03;5031276;28;1914;-68
2021/09/20 04:37:14;;;;;;;;;;;;;;;14.63;79.92;99410.94;5031778;28;791;-68
2021/09/20 04:39:40;;;;;;;;;;;;;;;14.72;79.80;99418.63;5014024;28;1363;-68
2021/09/20 04:42:07;;;;;;;;;;;;;;;14.86;79.05;99415.47;5031647;28;791;-68
2021/09/20 04:44:34;;;;;;;;;;;;;;;15.02;78.89;99420.97;5031699;28;912;-67
2021/09/20 04:47:00;;;;;;;;;;;;;;;15.22;78.49;99420.75;5013815;28;1205;-68
2021/09/20 04:49:27;;;;;;;;;;;;;;;15.34;78.16;99424.00;5031686;28;1016;-68
2021/09/20 04:51:54;;;;;;;;;;;;;;;15.41;77.88;99426.59;5031411;28;857;-67
2021/09/20 04:54:20;;;;;;;;;;;;;;;15.42;77.84;99426.13;5031517;28;1891;-68
2021/09/20 04:56:47;;;;;;;;;;;;;;;15.44;77.72;99426.44;5031482;28;815;-68
2021/09/20 04:59:50;;;;;;;;;;;;;;;15.56;77.97;99426.91;5285137;22;1967;-59
2021/09/20 05:02:16;;;;;;;;;;;;;;;15.67;77.61;99439.28;4973594;28;2033;-59
2021/09/20 05:04:42;;;;;;;;;;;;;;;15.85;77.63;99441.53;4992624;28;827;-59
2021/09/20 05:07:08;;;;;;;;;;;;;;;16.19;77.06;99442.78;4992084;28;897;-59
2021/09/20 05:09:35;;;;;;;;;;;;;;;16.47;76.47;99443.06;4992241;28;886;-59
2021/09/20 05:17:13;;;;;;;;;;;;;;;16.91;74.86;99454.28;5452094;22;1681;-59
2021/09/20 05:19:39;;;;;;;;;;;;;;;17.07;74.42;99456.09;5031273;28;1133;-54
2021/09/20 05:22:06;;;;;;;;;;;;;;;17.19;74.25;99460.81;5031552;28;945;-56
2021/09/20 05:24:32;;;;;;;;;;;;;;;17.32;73.13;99457.94;5031282;28;909;-56
2021/09/20 05:26:59;;;;;;;;;;;;;;;17.35;72.89;99459.84;5031311;28;830;-56
2021/09/20 05:29:25;;;;;;;;;;;;;;;17.40;72.35;99458.47;5031192;28;893;-56
2021/09/20 05:31:51;;;;;;;;;;;;;;;17.50;72.06;99455.25;5031229;28;831;-56
2021/09/20 05:34:22;;;;;;;;;;;;;;;17.65;70.50;99461.06;5031122;28;1906;-56
2021/09/20 05:36:49;;;;;;;;;;;;;;;17.87;69.82;99460.25;5031135;28;890;-56
2021/09/20 05:39:16;;;;;;;;;;;;;;;18.21;68.89;99455.69;5031470;28;811;-56
2021/09/20 05:41:43;;;;;;;;;;;;;;;18.67;67.33;99450.09;5031163;28;802;-56
2021/09/20 05:44:10;;;;;;;;;;;;;;;19.43;66.18;99447.53;5031231;28;854;-56
2021/09/20 05:46:37;;;;;;;;;;;;;;;20.01;64.01;99451.19;5034508;28;838;-56
2021/09/20 05:49:03;;;;;;;;;;;;;;;19.91;63.56;99450.47;5034721;28;938;-56
2021/09/20 05:51:30;;;;;;;;;;;;;;;19.71;64.75;99462.22;5034700;28;859;-56
2021/09/20 05:53:56;;;;;;;;;;;;;;;19.65;64.94;99453.69;5034722;28;1965;-56
2021/09/20 05:56:23;;;;;;;;;;;;;;;19.81;63.95;99462.97;5034740;28;850;-56
2021/09/20 05:58:50;;;;;;;;;;;;;;;19.82;64.25;99464.53;5017007;28;895;-56
2021/09/20 06:01:17;;;;;;;;;;;;;;;19.73;63.88;99454.91;5034619;28;794;-56
2021/09/20 06:03:43;;;;;;;;;;;;;;;19.76;64.22;99467.22;5034583;28;961;-56
2021/09/20 06:06:11;;;;;;;;;;;;;;;19.98;63.51;99453.69;5034440;28;894;-56
2021/09/20 06:08:38;;;;;;;;;;;;;;;20.40;62.44;99452.03;5034293;28;878;-56
2021/09/20 06:11:05;;;;;;;;;;;;;;;20.86;61.27;99443.25;5034493;28;870;-56
2021/09/20 06:13:30;;;;;;;;;;;;;;;21.35;60.31;99441.03;5034233;28;1955;-56
2021/09/20 06:15:57;;;;;;;;;;;;;;;22.06;58.54;99435.47;5034209;28;939;-56
2021/09/20 06:18:24;;;;;;;;;;;;;;;22.93;56.44;99432.69;5034082;28;1289;-57
2021/09/20 06:20:50;;;;;;;;;;;;;;;23.94;53.96;99432.81;5034287;28;843;-57
2021/09/20 06:23:17;;;;;;;;;;;;;;;24.86;51.55;99433.44;5034137;28;809;-57
2021/09/20 06:25:44;;;;;;;;;;;;;;;25.76;49.47;99429.88;5034215;28;834;-57
2021/09/20 06:28:10;;;;;;;;;;;;;;;26.01;48.51;99430.91;5034002;28;949;-57
2021/09/20 06:30:37;;;;;;;;;;;;;;;26.27;46.90;99432.63;5034132;28;814;-56
2021/09/20 06:33:04;;;;;;;;;;;;;;;25.94;47.04;99436.31;5033936;28;1968;-56
2021/09/20 06:35:30;;;;;;;;;;;;;;;25.98;47.05;99437.59;5034085;28;865;-57
2021/09/20 06:37:57;;;;;;;;;;;;;;;26.47;46.52;99431.50;5033953;28;822;-57
2021/09/20 06:40:24;;;;;;;;;;;;;;;27.09;44.48;99429.09;5034151;28;819;-56
2021/09/20 06:42:50;;;;;;;;;;;;;;;27.56;43.70;99438.81;5033800;28;839;-57
2021/09/20 06:45:18;;;;;;;;;;;;;;;27.96;42.77;99433.56;5033768;28;842;-57
2021/09/20 06:47:46;;;;;;;;;;;;;;;28.41;42.18;99433.03;5033602;28;990;-57
2021/09/20 06:50:13;;;;;;;;;;;;;;;28.65;41.28;99432.97;5033721;28;858;-57
2021/09/20 06:52:39;;;;;;;;;;;;;;;28.83;40.91;99437.13;5033456;28;1885;-57
2021/09/20 06:55:06;;;;;;;;;;;;;;;28.57;41.06;99436.97;5033626;28;980;-57
2021/09/20 06:57:33;;;;;;;;;;;;;;;27.79;42.13;99439.38;5032763;28;983;-57
2021/09/20 07:00:00;;;;;;;;;;;;;;;27.76;42.60;99432.69;5015798;28;1184;-57
2021/09/20 07:02:26;;;;;;;;;;;;;;;27.96;42.00;99427.88;5033480;28;919;-57
2021/09/20 07:04:54;;;;;;;;;;;;;;;28.08;42.24;99427.22;5033784;28;826;-57
2021/09/20 07:07:20;;;;;;;;;;;;;;;28.44;41.49;99434.78;5033461;28;899;-57
2021/09/20 07:09:47;;;;;;;;;;;;;;;28.94;40.39;99421.97;5033565;28;834;-57
2021/09/20 07:12:14;;;;;;;;;;;;;;;29.20;39.68;99429.88;5033275;28;907;-57
2021/09/20 07:14:42;;;;;;;;;;;;;;;29.55;38.71;99425.16;5033271;28;1890;-57
2021/09/20 07:17:09;;;;;;;;;;;;;;;29.41;38.37;99430.06;5032790;28;1178;-57
2021/09/20 07:19:35;;;;;;;;;;;;;;;28.88;39.95;99438.34;5033196;28;863;-57
2021/09/20 07:22:02;;;;;;;;;;;;;;;29.04;40.06;99445.88;5015695;28;1047;-57
2021/09/20 07:24:29;;;;;;;;;;;;;;;29.28;39.65;99442.16;5033258;28;863;-57
2021/09/20 07:26:56;;;;;;;;;;;;;;;29.23;38.52;99450.78;5033274;28;811;-57
2021/09/20 07:29:23;;;;;;;;;;;;;;;29.02;38.93;99454.19;5033168;28;939;-57
2021/09/20 07:44:00;;;;;;;;;;;;;;;27.93;41.55;99443.91;5032684;28;692;-57
2021/09/20 07:46:27;;;;;;;;;;;;;;;27.42;42.21;99437.91;5032677;28;807;-57
2021/09/20 07:48:54;;;;;;;;;;;;;;;26.79;43.97;99434.69;5032477;28;1089;-57
2021/09/20 07:51:21;;;;;;;;;;;;;;;26.09;45.62;99439.59;5032538;28;801;-57
2021/09/20 07:53:47;;;;;;;;;;;;;;;25.97;46.16;99447.38;5032429;28;1955;-57
2021/09/20 07:56:14;;;;;;;;;;;;;;;26.84;44.44;99442.41;5032454;28;835;-57
2021/09/20 07:58:40;;;;;;;;;;;;;;;27.80;42.96;99443.75;5032380;28;838;-57
2021/09/20 08:01:07;;;;;;;;;;;;;;;28.50;41.21;99441.19;5032366;28;807;-57
2021/09/20 08:03:33;;;;;;;;;;;;;;;28.91;40.39;99437.25;5032322;28;806;-57
2021/09/20 08:06:00;;;;;;;;;;;;;;;28.95;39.99;99426.34;5032321;28;885;-57
2021/09/20 08:08:27;;;;;;;;;;;;;;;29.39;39.13;99424.13;5013598;28;870;-56
2021/09/20 08:10:55;;;;;;;;;;;;;;;29.69;38.89;99415.34;5032135;28;930;-56
2021/09/20 08:13:22;;;;;;;;;;;;;;;30.08;38.53;99408.13;5031867;28;1952;-57
2021/09/20 08:15:49;;;;;;;;;;;;;;;30.53;38.45;99410.09;5032350;28;1364;-57
2021/09/20 08:18:16;;;;;;;;;;;;;;;30.97;37.82;99409.63;5031836;28;1431;-56
2021/09/20 08:20:43;;;;;;;;;;;;;;;30.80;37.24;99409.25;5032045;28;868;-56
2021/09/20 08:23:11;;;;;;;;;;;;;;;29.60;38.75;99420.69;5031923;28;814;-56
2021/09/20 08:25:38;;;;;;;;;;;;;;;29.05;40.47;99412.50;5031904;28;901;-56
2021/09/20 08:28:04;;;;;;;;;;;;;;;28.65;40.58;99420.84;5031949;28;818;-56
2021/09/20 08:30:31;;;;;;;;;;;;;;;27.73;43.59;99427.31;5031824;28;875;-56
2021/09/20 08:32:58;;;;;;;;;;;;;;;27.20;44.67;99421.78;5031801;28;1910;-56
2021/09/20 08:35:25;;;;;;;;;;;;;;;27.11;44.27;99419.28;5031652;28;871;-56
2021/09/20 08:37:52;;;;;;;;;;;;;;;27.48;43.41;99418.75;5032027;28;886;-57
2021/09/20 08:40:19;;;;;;;;;;;;;;;27.56;43.52;99416.88;5031653;28;890;-57
2021/09/20 08:42:46;;;;;;;;;;;;;;;27.54;43.66;99410.94;5031522;28;938;-56
2021/09/20 08:45:16;;;;;;;;;;;;;;;28.14;42.96;99410.09;5031686;28;795;-56
2021/09/20 08:47:51;;;;;;;;;;;;;;;28.85;41.57;99402.47;5031648;28;913;-57
2021/09/20 08:50:19;;;;;;;;;;;;;;;29.10;41.14;99406.75;5031690;28;791;-57
2021/09/20 08:52:46;;;;;;;;;;;;;;;29.39;40.18;99401.38;5031438;28;1938;-57
2021/09/20 08:55:14;;;;;;;;;;;;;;;29.37;40.51;99403.22;5031621;28;1025;-56
2021/09/20 08:57:41;;;;;;;;;;;;;;;29.47;40.58;99407.19;5031410;28;871;-57
2021/09/20 09:00:09;;;;;;;;;;;;;;;29.35;39.69;99400.16;5031542;28;810;-56
2021/09/20 09:02:36;;;;;;;;;;;;;;;29.13;39.97;99395.63;5031656;28;887;-57
2021/09/20 09:05:15;;;;;;;;;;;;;;;29.06;41.10;99397.75;5031561;28;889;-56
2021/09/20 09:07:43;;;;;;;;;;;;;;;29.01;40.96;99392.13;5032090;28;775;-56
2021/09/20 09:10:11;;;;;;;;;;;;;;;28.94;42.08;99390.69;5031585;28;933;-54
2021/09/20 09:12:39;;;;;;;;;;;;;;;28.97;41.52;99397.38;5031453;28;1886;-59
2021/09/20 09:15:08;;;;;;;;;;;;;;;28.79;41.93;99388.34;5031386;28;826;-56
2021/09/20 09:17:39;;;;;;;;;;;;;;;28.82;42.37;99383.63;5031171;28;1464;-57
2021/09/20 09:20:07;;;;;;;;;;;;;;;29.06;42.06;99385.59;5032444;28;935;-56
2021/09/20 09:22:53;;;;;;;;;;;;;;;29.21;40.89;99387.97;5035397;28;838;-57
2021/09/20 09:25:22;;;;;;;;;;;;;;;29.08;41.45;99391.50;5035291;28;855;-57
2021/09/20 09:27:50;;;;;;;;;;;;;;;28.98;41.90;99384.69;5035126;28;868;-56
2021/09/20 09:30:18;;;;;;;;;;;;;;;28.89;42.31;99375.25;5035273;28;885;-56
2021/09/20 09:32:46;;;;;;;;;;;;;;;28.85;41.74;99369.13;5034911;28;1946;-56
2021/09/20 09:35:14;;;;;;;;;;;;;;;28.83;42.27;99359.59;5035131;28;803;-56
2021/09/20 09:37:42;;;;;;;;;;;;;;;28.91;42.02;99354.78;5035071;28;874;-56
2021/09/20 09:40:10;;;;;;;;;;;;;;;28.89;41.13;99361.03;5017395;28;847;-56
2021/09/20 09:42:38;;;;;;;;;;;;;;;28.91;41.66;99355.56;5034882;28;819;-56
2021/09/20 09:45:19;;;;;;;;;;;;;;;28.88;41.87;99350.94;5035024;28;885;-56
2021/09/20 09:47:47;;;;;;;;;;;;;;;29.11;41.40;99348.53;5034878;28;827;-56
2021/09/20 09:50:16;;;;;;;;;;;;;;;29.06;41.45;99345.75;5034809;28;897;-56
2021/09/20 09:52:43;;;;;;;;;;;;;;;29.17;41.78;99348.47;5034569;28;1936;-57
2021/09/20 09:55:11;;;;;;;;;;;;;;;29.21;40.69;99339.59;5034776;28;794;-56
2021/09/20 09:57:38;;;;;;;;;;;;;;;29.28;40.62;99338.97;5034644;28;850;-56
2021/09/20 10:00:07;;;;;;;;;;;;;;;29.43;40.13;99332.75;5034749;28;799;-56
2021/09/20 10:02:35;;;;;;;;;;;;;;;29.64;39.66;99325.09;5034621;28;834;-56
2021/09/20 10:05:06;;;;;;;;;;;;;;;29.85;40.01;99318.75;5034719;28;847;-57
2021/09/20 10:07:34;;;;;;;;;;;;;;;29.96;39.07;99314.88;5035255;28;802;-56
2021/09/20 10:10:05;;;;;;;;;;;;;;;29.46;40.04;99323.84;5034623;28;882;-56
2021/09/20 10:12:32;;;;;;;;;;;;;;;29.11;39.82;99319.34;5034251;28;854;-56
2021/09/20 10:15:00;;;;;;;;;;;;;;;29.27;39.81;99317.50;5034468;28;1890;-56
2021/09/20 10:17:27;;;;;;;;;;;;;;;29.37;39.31;99307.22;5034227;28;1367;-56
2021/09/20 10:19:54;;;;;;;;;;;;;;;29.57;39.49;99316.41;5034319;28;787;-57
2021/09/20 10:22:21;;;;;;;;;;;;;;;29.85;39.50;99315.88;5034322;28;850;-57
2021/09/20 10:24:50;;;;;;;;;;;;;;;30.02;38.54;99310.63;5034219;28;993;-57
2021/09/20 10:27:18;;;;;;;;;;;;;;;29.97;37.93;99302.94;5034058;28;926;-57
2021/09/20 10:29:49;;;;;;;;;;;;;;;29.78;38.33;99305.94;5034151;28;807;-57
2021/09/20 10:32:16;;;;;;;;;;;;;;;29.83;38.16;99304.28;5033111;28;807;-57
2021/09/20 10:34:43;;;;;;;;;;;;;;;30.04;38.83;99308.00;5034002;28;1913;-57
2021/09/20 10:37:11;;;;;;;;;;;;;;;30.40;37.33;99301.00;5034014;28;811;-57
2021/09/20 10:39:48;;;;;;;;;;;;;;;30.42;37.49;99295.53;5033789;28;949;-57
2021/09/20 10:42:34;;;;;;;;;;;;;;;30.52;37.87;99290.88;5033659;28;919;-57
2021/09/20 10:45:01;;;;;;;;;;;;;;;30.69;35.76;99281.94;5033976;28;873;-56
2021/09/20 10:47:46;;;;;;;;;;;;;;;30.65;34.06;99287.97;5033947;28;927;-57
2021/09/20 10:50:14;;;;;;;;;;;;;;;30.42;35.79;99282.03;5033862;28;856;-57
2021/09/20 10:53:15;;;;;;;;;;;;;;;30.53;35.29;99276.09;5033661;28;1963;-57
2021/09/20 10:55:59;;;;;;;;;;;;;;;30.69;34.86;99273.38;4972782;28;1320;-57
2021/09/20 10:58:26;;;;;;;;;;;;;;;30.67;35.09;99264.59;4972705;28;907;-57
2021/09/20 11:01:15;;;;;;;;;;;;;;;30.73;35.15;99265.22;4972752;28;854;-57
2021/09/20 11:03:56;;;;;;;;;;;;;;;31.03;34.78;99258.28;4972260;28;1954;-57
2021/09/20 11:06:30;;;;;;;;;;;;;;;31.08;35.29;99249.56;4972639;28;999;-56
2021/09/20 11:09:03;;;;;;;;;;;;;;;31.12;34.57;99258.53;4972477;28;890;-57
2021/09/20 11:11:39;;;;;;;;;;;;;;;30.98;35.60;99247.75;4972397;28;963;-56
2021/09/20 11:14:07;;;;;;;;;;;;;;;30.91;35.47;99249.25;4972626;28;1945;-56
2021/09/20 11:16:52;;;;;;;;;;;;;;;31.01;35.55;99244.56;4972112;28;1511;-57
2021/09/20 11:19:27;;;;;;;;;;;;;;;31.12;35.21;99254.91;4972578;28;831;-57
2021/09/20 11:24:46;;;;;;;;;;;;;;;30.87;35.39;99238.16;4972289;28;700;-56
2021/09/20 11:27:14;;;;;;;;;;;;;;;30.98;36.11;99239.22;4972027;28;906;-56
2021/09/20 11:29:41;;;;;;;;;;;;;;;30.86;36.20;99235.88;5003001;28;1026;-56
2021/09/20 11:32:09;;;;;;;;;;;;;;;30.86;35.70;99244.44;5032806;28;1089;-56
2021/09/20 11:34:36;;;;;;;;;;;;;;;30.90;36.33;99233.47;5032857;28;1991;-56
2021/09/20 11:37:13;;;;;;;;;;;;;;;30.96;35.20;99225.53;5032846;28;849;-56
2021/09/20 11:39:47;;;;;;;;;;;;;;;31.00;35.44;99239.41;5032811;28;795;-56
2021/09/20 11:42:16;;;;;;;;;;;;;;;30.93;35.60;99220.91;5032838;28;931;-56
2021/09/20 11:44:52;;;;;;;;;;;;;;;31.05;35.86;99216.44;5032549;28;862;-56
2021/09/20 11:47:21;;;;;;;;;;;;;;;31.20;36.64;99227.19;5032966;28;866;-56
2021/09/20 11:49:48;;;;;;;;;;;;;;;31.09;36.00;99216.09;5032490;28;855;-56
2021/09/20 11:52:14;;;;;;;;;;;;;;;31.16;35.70;99217.47;5032742;28;1125;-56
2021/09/20 11:54:46;;;;;;;;;;;;;;;31.42;34.91;99208.66;5014854;28;1890;-56
2021/09/20 11:57:22;;;;;;;;;;;;;;;31.37;34.15;99209.59;5032361;28;859;-56
2021/09/20 11:59:51;;;;;;;;;;;;;;;30.91;34.93;99200.75;5032405;28;794;-56
2021/09/20 12:02:27;;;;;;;;;;;;;;;30.58;35.37;99202.34;5032314;28;923;-56
2021/09/20 12:04:54;;;;;;;;;;;;;;;30.43;35.66;99200.91;5032344;28;883;-56
2021/09/20 12:07:40;;;;;;;;;;;;;;;30.52;35.32;99196.78;5032174;28;863;-56
2021/09/20 12:10:07;;;;;;;;;;;;;;;30.92;35.42;99199.44;5032077;28;922;-56
2021/09/20 12:12:36;;;;;;;;;;;;;;;30.85;35.65;99191.53;5032087;28;885;-56
2021/09/20 12:15:13;;;;;;;;;;;;;;;31.45;35.01;99196.16;5032132;28;1957;-57
2021/09/20 12:17:57;;;;;;;;;;;;;;;31.92;34.21;99183.59;5032034;28;1381;-57
2021/09/20 12:20:25;;;;;;;;;;;;;;;31.94;33.95;99174.41;5031941;28;950;-57
2021/09/20 12:22:53;;;;;;;;;;;;;;;31.80;34.75;99167.34;5032068;28;910;-56
2021/09/20 12:25:20;;;;;;;;;;;;;;;31.36;34.99;99175.91;5031965;28;838;-56
2021/09/20 12:27:48;;;;;;;;;;;;;;;31.13;35.01;99168.75;5032002;28;827;-56
2021/09/20 12:30:18;;;;;;;;;;;;;;;31.91;34.50;99167.00;5032077;28;910;-56
2021/09/20 12:32:45;;;;;;;;;;;;;;;32.42;34.03;99160.44;5031991;28;1973;-56
2021/09/20 12:35:12;;;;;;;;;;;;;;;32.77;33.84;99152.22;5031838;28;851;-56
2021/09/20 12:37:39;;;;;;;;;;;;;;;33.09;32.01;99153.72;5031830;28;866;-56
2021/09/20 12:40:18;;;;;;;;;;;;;;;32.98;31.79;99149.16;5031681;28;829;-57
2021/09/20 12:43:03;;;;;;;;;;;;;;;33.08;32.44;99147.25;5031617;28;922;-56
2021/09/20 12:45:35;;;;;;;;;;;;;;;33.18;32.62;99141.69;5031695;28;874;-56
2021/09/20 12:48:01;;;;;;;;;;;;;;;33.46;32.31;99134.91;5031724;28;857;-56
2021/09/20 12:50:36;;;;;;;;;;;;;;;33.32;32.36;99142.97;5031733;28;802;-56
2021/09/20 12:53:03;;;;;;;;;;;;;;;33.16;32.09;99147.25;5031546;28;1890;-56
2021/09/20 12:55:36;;;;;;;;;;;;;;;32.77;34.08;99143.66;5031002;28;921;-56
2021/09/20 12:58:04;;;;;;;;;;;;;;;31.68;36.03;99136.25;5031448;28;913;-56
2021/09/20 13:00:33;;;;;;;;;;;;;;;30.71;37.60;99128.13;5031689;28;909;-56
2021/09/20 13:03:12;;;;;;;;;;;;;;;29.96;39.56;99136.22;5031577;28;839;-55
2021/09/20 13:05:44;;;;;;;;;;;;;;;29.62;40.13;99130.50;5031409;28;863;-56
2021/09/20 13:08:11;;;;;;;;;;;;;;;29.75;40.54;99124.78;5031623;28;818;-56
2021/09/20 13:10:42;;;;;;;;;;;;;;;30.33;40.36;99129.34;5031664;28;807;-56
2021/09/20 13:13:11;;;;;;;;;;;;;;;30.90;38.96;99125.81;5031265;28;1975;-57
2021/09/20 13:15:43;;;;;;;;;;;;;;;31.43;37.44;99113.16;5031243;28;1060;-57
2021/09/20 13:18:17;;;;;;;;;;;;;;;31.79;37.52;99109.44;5031269;28;1342;-57
2021/09/20 13:20:44;;;;;;;;;;;;;;;31.22;38.23;99118.19;5031564;28;913;-57
2021/09/20 13:23:12;;;;;;;;;;;;;;;30.19;39.67;99132.81;5031312;28;843;-56
2021/09/20 13:25:44;;;;;;;;;;;;;;;29.61;40.95;99132.56;5031583;28;1224;-56
2021/09/20 13:28:11;;;;;;;;;;;;;;;29.07;41.63;99131.09;5031220;28;878;-56
2021/09/20 13:30:42;;;;;;;;;;;;;;;28.53;43.00;99118.94;5031290;28;870;-56